METAR Data
IDs: Format: Raw Decoded Include TAF

Data at: 1138 UTC 16 Feb 2019

PAEN 161053Z AUTO 00000KT 10SM CLR M14/M17 A3016 RMK AO2 SLP215 T11441172 TSNO
PAEN 160953Z AUTO 00000KT 10SM FEW110 M15/M18 A3016 RMK AO2 SLP218 T11501178 TSNO
PAEN 160853Z AUTO 07004KT 10SM CLR M15/M18 A3014 RMK AO2 SLP209 T11501178 410671222 51016 TSNO
PAEN 160753Z AUTO 02006KT 10SM CLR M16/M18 A3013 RMK AO2 SLP207 T11561183 TSNO
PAEN 160653Z AUTO 01007KT 10SM CLR M16/M19 A3012 RMK AO2 SLP205 T11561189 TSNO
PAEN 160553Z 05008KT 10SM CLR M15/M17 A3009 RMK AO2 SLP194 T11501172 11067 21178 50002
PAEN 160453Z 34003KT 10SM CLR M14/M17 A3012 RMK AO2 SLP202 T11441172
PAEN 160353Z 00000KT 10SM CLR M13/M17 A3012 RMK AO2 SLP204 T11281167
PAEN 160253Z 03004KT 10SM CLR M11/M17 A3009 RMK AO2 SLP193 T11061167 50004
PAEN 160153Z 32003KT 10SM CLR M08/M16 A3010 RMK AO2 SLP197 T10781161
PAEN 160053Z 34003KT 10SM CLR M08/M17 A3009 RMK AO2 SLP194 T10831167
PAEN 152353Z 05005KT 10SM CLR M07/M16 A3007 RMK AO2 SLP187 T10721156 11072 21217 50000
PAEN 152253Z 06005KT 10SM CLR M08/M16 A3008 RMK AO2 SLP190 T10781156
PAEN 152153Z 01004KT 10SM CLR M11/M17 A3008 RMK AO2 SLP190 T11061172
PAEN 152053Z 04004KT 10SM CLR M13/M16 A3007 RMK AO2 SLP187 T11281156 53008
PAEN 151953Z 00000KT 10SM CLR M15/M17 A3007 RMK AO2 SLP186 T11501167
PAEN 151853Z 02003KT 10SM CLR M19/M21 A3005 RMK AO2 SLP181 T11891206
PAEN 151753Z 05003KT 10SM CLR M19/M21 A3005 RMK AO2 SLP180 I6000 T11941206 11167 21222 53007
PAEN 151653Z 05006KT 10SM CLR M21/M22 A3003 RMK AO2 SLP174 T12061222
PAEN 151553Z 01005KT 10SM CLR M21/M23 A3003 RMK AO2 SLP174 T12111228
PAEN 151453Z AUTO 05004KT 10SM CLR M20/M22 A3003 RMK AO2 SLP173 I1000 I3000 T12001217 53004 TSNO
PAEN 151353Z AUTO 07003KT 10SM CLR M19/M20 A3002 RMK AO2 SLP170 I1000 T11891200 TSNO
PAEN 151253Z AUTO 00000KT 10SM CLR M20/M21 A3002 RMK AO2 SLP168 I1000 T12001211 TSNO
PAEN 151153Z AUTO 00000KT 10SM CLR M17/M18 A3002 RMK AO2 SLP168 T11671183 11133 21178 53007 TSNO
PAEN 151053Z AUTO 00000KT 10SM CLR M14/M17 A3000 RMK AO2 SLP163 T11441167 TSNO
PAEN 150953Z AUTO 07003KT 10SM CLR M14/M16 A3000 RMK AO2 SLP161 T11391161 TSNO
PAEN 150853Z AUTO 00000KT 10SM CLR M13/M16 A3000 RMK AO2 SLP161 T11331156 410671211 56004 TSNO
PAEN 150753Z AUTO 00000KT 10SM BKN120 M16/M18 A3000 RMK AO2 SLP164 T11561178 TSNO
PAEN 150653Z AUTO 00000KT 10SM OVC120 M17/M18 A3000 RMK AO2 SLP163 T11671183 TSNO
PAEN 150553Z 21003KT 10SM CLR M14/M17 A3001 RMK AO2 SLP166 T11441172 11067 21156 58004
PAEN 150453Z 00000KT 10SM FEW120 M13/M17 A3000 RMK AO2 SLP163 T11331167
PAEN 150353Z 26003KT 10SM CLR M13/M15 A3003 RMK AO2 SLP174 T11281150
PAEN 150253Z 00000KT 10SM CLR M13/M18 A3002 RMK AO2 SLP169 T11331178 56019
PAEN 150153Z 00000KT 10SM CLR M08/M15 A3003 RMK AO2 SLP172 T10831150
PAEN 150053Z 00000KT 9SM CLR M07/M14 A3006 RMK AO2 SLP183 T10721139
PAEN 142353Z 20005KT 10SM CLR M09/M15 A3008 RMK AO2 SLP189 T10891150 11072 21211 53002